Time;durP1;ratioP1;P1;durP2;ratioP2;P2;SDS_P1;SDS_P2;PMS_P1;PMS_P2;Temp;Humidity;BMP_temperature;BMP_pressure;BME280_temperature;BME280_humidity;BME280_pressure;Samples;Min_cycle;Max_cycle;Signal;HPM_P1;HPM_P2
2022/11/20 00:01:59;;;;;;;;;;;;;;;;;;5015619;28;19953;-64
2022/11/20 00:04:24;;;;;;;;;;;;;;;;;;5015562;28;20406;-64
2022/11/20 00:06:49;;;;;;;;;;;;;;;;;;5015563;28;20287;-63
2022/11/20 00:09:15;;;;;;;;;;;;;;;;;;5015437;28;20367;-67
2022/11/20 00:11:40;;;;;;;;;;;;;;;;;;5015507;28;20371;-64
2022/11/20 00:14:05;;;;;;;;;;;;;;;;;;5015504;28;19913;-67
2022/11/20 00:16:32;;;;;;;;;;;;;;;;;;5015459;28;20356;-67
2022/11/20 00:18:57;;;;;;;;;;;;;;;;;;5029196;28;19974;-68
2022/11/20 00:21:24;;;;;;;;;;;;;;;;;;5035005;28;20362;-68
2022/11/20 00:23:50;;;;;;;;;;;;;;;;;;5035104;28;19913;-66
2022/11/20 00:26:16;;;;;;;;;;;;;;;;;;5034549;28;19921;-65
2022/11/20 00:28:44;;;;;;;;;;;;;;;;;;5034733;28;20367;-67
2022/11/20 00:31:14;;;;;;;;;;;;;;;;;;5034716;28;19988;-64
2022/11/20 00:33:39;;;;;;;;;;;;;;;;;;5034909;28;19941;-68
2022/11/20 00:36:06;;;;;;;;;;;;;;;;;;5034641;28;19956;-68
2022/11/20 00:38:32;;;;;;;;;;;;;;;;;;5035116;28;20335;-68
2022/11/20 00:40:58;;;;;;;;;;;;;;;;;;5034565;28;19913;-68
2022/11/20 00:43:24;;;;;;;;;;;;;;;;;;5034686;28;19944;-68
2022/11/20 00:45:49;;;;;;;;;;;;;;;;;;5028660;28;19917;-67
2022/11/20 00:48:15;;;;;;;;;;;;;;;;;;5030935;28;19979;-67
2022/11/20 00:50:41;;;;;;;;;;;;;;;;;;5033237;28;19913;-68
2022/11/20 00:53:06;;;;;;;;;;;;;;;;;;5033156;28;19964;-68
2022/11/20 00:55:31;;;;;;;;;;;;;;;;;;5033242;28;20328;-68
2022/11/20 00:57:57;;;;;;;;;;;;;;;;;;5033190;28;20330;-68
2022/11/20 01:00:22;;;;;;;;;;;;;;;;;;5032705;28;19939;-67
2022/11/20 01:02:47;;;;;;;;;;;;;;;;;;5033173;28;19913;-66
2022/11/20 01:05:13;;;;;;;;;;;;;;;;;;5033186;28;19917;-67
2022/11/20 01:07:38;;;;;;;;;;;;;;;;;;5033179;28;19913;-68
2022/11/20 01:10:04;;;;;;;;;;;;;;;;;;5033078;28;19917;-68
2022/11/20 01:12:29;;;;;;;;;;;;;;;;;;5032921;28;19913;-68
2022/11/20 01:14:54;;;;;;;;;;;;;;;;;;5032747;28;20004;-66
2022/11/20 01:17:20;;;;;;;;;;;;;;;;;;5033078;28;19913;-67
2022/11/20 01:19:48;;;;;;;;;;;;;;;;;;5032642;28;20362;-68
2022/11/20 01:22:13;;;;;;;;;;;;;;;;;;5032780;28;19960;-68
2022/11/20 01:24:38;;;;;;;;;;;;;;;;;;5032564;28;20108;-67
2022/11/20 01:27:04;;;;;;;;;;;;;;;;;;5032548;28;19996;-67
2022/11/20 01:29:29;;;;;;;;;;;;;;;;;;5032429;28;19917;-67
2022/11/20 01:31:54;;;;;;;;;;;;;;;;;;5031767;28;20006;-67
2022/11/20 01:34:21;;;;;;;;;;;;;;;;;;5033452;28;20419;-68
2022/11/20 01:36:47;;;;;;;;;;;;;;;;;;5033548;28;20414;-66
2022/11/20 01:39:22;;;;;;;;;;;;;;;;;;5033493;28;19917;-67
2022/11/20 01:44:51;;;;;;;;;;;;;;;;;;5033557;28;20459;-68
2022/11/20 01:47:37;;;;;;;;;;;;;;;;;;5033343;28;19916;-67
2022/11/20 01:50:16;;;;;;;;;;;;;;;;;;5032803;28;19916;-66
2022/11/20 01:52:55;;;;;;;;;;;;;;;;;;5033316;28;19921;-64
2022/11/20 01:55:29;;;;;;;;;;;;;;;;;;5033592;28;19913;-67
2022/11/20 01:57:55;;;;;;;;;;;;;;;;;;5033345;28;19920;-64
2022/11/20 02:00:20;;;;;;;;;;;;;;;;;;5032874;28;19917;-64
2022/11/20 02:02:48;;;;;;;;;;;;;;;;;;5032479;28;19928;-65
2022/11/20 02:05:22;;;;;;;;;;;;;;;;;;5032566;28;19948;-65
2022/11/20 02:07:48;;;;;;;;;;;;;;;;;;5032497;28;19971;-64
2022/11/20 02:10:14;;;;;;;;;;;;;;;;;;5032613;28;19948;-65
2022/11/20 02:15:23;;;;;;;;;;;;;;;;;;5032664;28;20021;-64
2022/11/20 02:17:48;;;;;;;;;;;;;;;;;;5033023;28;19956;-64
2022/11/20 02:20:13;;;;;;;;;;;;;;;;;;5032799;28;19913;-64
2022/11/20 02:22:43;;;;;;;;;;;;;;;;;;5033129;28;19913;-64
2022/11/20 02:25:09;;;;;;;;;;;;;;;;;;5032749;28;19932;-67
2022/11/20 02:27:35;;;;;;;;;;;;;;;;;;5016921;28;19917;-68
2022/11/20 02:30:01;;;;;;;;;;;;;;;;;;5012742;28;19909;-68
2022/11/20 02:32:27;;;;;;;;;;;;;;;;;;5012444;28;20380;-67
2022/11/20 02:34:52;;;;;;;;;;;;;;;;;;5012514;28;19921;-67
2022/11/20 02:37:18;;;;;;;;;;;;;;;;;;5012379;28;20367;-67
2022/11/20 02:39:44;;;;;;;;;;;;;;;;;;5012878;28;19924;-67
2022/11/20 02:42:09;;;;;;;;;;;;;;;;;;5012808;28;19914;-68
2022/11/20 02:44:35;;;;;;;;;;;;;;;;;;5013042;28;20271;-68
2022/11/20 02:47:00;;;;;;;;;;;;;;;;;;5013043;28;19914;-67
2022/11/20 02:49:25;;;;;;;;;;;;;;;;;;5012907;28;20320;-67
2022/11/20 02:51:51;;;;;;;;;;;;;;;;;;5012891;28;19913;-68
2022/11/20 02:54:16;;;;;;;;;;;;;;;;;;5012958;28;20000;-67
2022/11/20 02:56:42;;;;;;;;;;;;;;;;;;5012620;28;19951;-67
2022/11/20 02:59:07;;;;;;;;;;;;;;;;;;5012831;28;19956;-68
2022/11/20 03:01:32;;;;;;;;;;;;;;;;;;5011434;28;19918;-67
2022/11/20 03:03:58;;;;;;;;;;;;;;;;;;5011488;28;19980;-67
2022/11/20 03:06:23;;;;;;;;;;;;;;;;;;5012844;28;19917;-68
2022/11/20 03:08:48;;;;;;;;;;;;;;;;;;5012799;28;19936;-67
2022/11/20 03:11:14;;;;;;;;;;;;;;;;;;5012027;28;20265;-68
2022/11/20 03:13:39;;;;;;;;;;;;;;;;;;5012077;28;19913;-68
2022/11/20 03:16:10;;;;;;;;;;;;;;;;;;5015061;28;19924;-66
2022/11/20 03:18:35;;;;;;;;;;;;;;;;;;5015829;28;20360;-67
2022/11/20 03:21:00;;;;;;;;;;;;;;;;;;5016274;28;19914;-66
2022/11/20 03:23:25;;;;;;;;;;;;;;;;;;5016436;28;19914;-65
2022/11/20 03:25:51;;;;;;;;;;;;;;;;;;5015849;28;19968;-64
2022/11/20 03:28:16;;;;;;;;;;;;;;;;;;5016341;28;19963;-64
2022/11/20 03:30:42;;;;;;;;;;;;;;;;;;5016250;28;20089;-64
2022/11/20 03:33:07;;;;;;;;;;;;;;;;;;5016326;28;19913;-64
2022/11/20 03:35:32;;;;;;;;;;;;;;;;;;5016331;28;20344;-65
2022/11/20 03:37:58;;;;;;;;;;;;;;;;;;5016157;28;20460;-65
2022/11/20 03:40:23;;;;;;;;;;;;;;;;;;5015802;28;20348;-64
2022/11/20 03:42:48;;;;;;;;;;;;;;;;;;5015899;28;19918;-64
2022/11/20 03:45:15;;;;;;;;;;;;;;;;;;5015378;28;19913;-65
2022/11/20 03:47:40;;;;;;;;;;;;;;;;;;5015340;28;19917;-64
2022/11/20 03:50:06;;;;;;;;;;;;;;;;;;5015019;28;19921;-66
2022/11/20 03:52:31;;;;;;;;;;;;;;;;;;5015480;28;19913;-65
2022/11/20 03:54:56;;;;;;;;;;;;;;;;;;5015581;28;19914;-66
2022/11/20 03:57:21;;;;;;;;;;;;;;;;;;5015876;28;19940;-66
2022/11/20 03:59:47;;;;;;;;;;;;;;;;;;5015600;28;19913;-63
2022/11/20 04:02:12;;;;;;;;;;;;;;;;;;5015596;28;20004;-64
2022/11/20 04:04:37;;;;;;;;;;;;;;;;;;5015559;28;19909;-64
2022/11/20 04:07:03;;;;;;;;;;;;;;;;;;5015591;28;19913;-64
2022/11/20 04:09:28;;;;;;;;;;;;;;;;;;5015408;28;19947;-64
2022/11/20 04:11:53;;;;;;;;;;;;;;;;;;5015734;28;19961;-64
2022/11/20 04:14:19;;;;;;;;;;;;;;;;;;5015485;28;19920;-67
2022/11/20 04:16:44;;;;;;;;;;;;;;;;;;5014790;28;19909;-68
2022/11/20 04:19:11;;;;;;;;;;;;;;;;;;5014463;28;19913;-67
2022/11/20 04:21:36;;;;;;;;;;;;;;;;;;5014565;28;19921;-66
2022/11/20 04:24:02;;;;;;;;;;;;;;;;;;5014350;28;19913;-67
2022/11/20 04:26:28;;;;;;;;;;;;;;;;;;5014027;28;20315;-68
2022/11/20 04:28:54;;;;;;;;;;;;;;;;;;5015027;28;20367;-68
2022/11/20 04:31:22;;;;;;;;;;;;;;;;;;5015032;28;19913;-67
2022/11/20 04:33:48;;;;;;;;;;;;;;;;;;5014986;28;20004;-66
2022/11/20 04:36:13;;;;;;;;;;;;;;;;;;5015011;28;20004;-68
2022/11/20 04:38:39;;;;;;;;;;;;;;;;;;5014822;28;19919;-66
2022/11/20 04:41:05;;;;;;;;;;;;;;;;;;5014755;28;19936;-67
2022/11/20 04:43:31;;;;;;;;;;;;;;;;;;5014321;28;20403;-66
2022/11/20 04:45:57;;;;;;;;;;;;;;;;;;5014348;28;19914;-65
2022/11/20 04:48:23;;;;;;;;;;;;;;;;;;5014106;28;19944;-64
2022/11/20 04:50:48;;;;;;;;;;;;;;;;;;5014228;28;20458;-66
2022/11/20 04:53:13;;;;;;;;;;;;;;;;;;5014720;28;19913;-66
2022/11/20 04:55:39;;;;;;;;;;;;;;;;;;5014726;28;19980;-67
2022/11/20 04:58:04;;;;;;;;;;;;;;;;;;5014516;28;19966;-67
2022/11/20 05:00:29;;;;;;;;;;;;;;;;;;5014512;28;19999;-67
2022/11/20 05:02:55;;;;;;;;;;;;;;;;;;5014539;28;19913;-67
2022/11/20 05:05:20;;;;;;;;;;;;;;;;;;5014523;28;20008;-67
2022/11/20 05:07:45;;;;;;;;;;;;;;;;;;5014140;28;19955;-68
2022/11/20 05:10:11;;;;;;;;;;;;;;;;;;5014034;28;19913;-68
2022/11/20 05:12:36;;;;;;;;;;;;;;;;;;5013748;28;19920;-67
2022/11/20 05:15:02;;;;;;;;;;;;;;;;;;5013542;28;19920;-68
2022/11/20 05:17:27;;;;;;;;;;;;;;;;;;5013496;28;19913;-68
2022/11/20 05:19:52;;;;;;;;;;;;;;;;;;5013603;28;19955;-68
2022/11/20 05:22:18;;;;;;;;;;;;;;;;;;5013836;28;19914;-68
2022/11/20 05:24:43;;;;;;;;;;;;;;;;;;5013813;28;19923;-67
2022/11/20 05:27:08;;;;;;;;;;;;;;;;;;5013885;28;20007;-68
2022/11/20 05:29:34;;;;;;;;;;;;;;;;;;5014039;28;20002;-65
2022/11/20 05:31:59;;;;;;;;;;;;;;;;;;5014115;28;19953;-67
2022/11/20 05:34:24;;;;;;;;;;;;;;;;;;5014014;28;19968;-65
2022/11/20 05:36:50;;;;;;;;;;;;;;;;;;5013316;28;19913;-64
2022/11/20 05:39:15;;;;;;;;;;;;;;;;;;5013438;28;19917;-64
2022/11/20 05:41:40;;;;;;;;;;;;;;;;;;5012592;28;19955;-64
2022/11/20 05:44:06;;;;;;;;;;;;;;;;;;5013209;28;19914;-64
2022/11/20 05:46:31;;;;;;;;;;;;;;;;;;5013303;28;19921;-64
2022/11/20 05:48:57;;;;;;;;;;;;;;;;;;5013063;28;19913;-64
2022/11/20 05:51:22;;;;;;;;;;;;;;;;;;5012879;28;19997;-64
2022/11/20 05:53:47;;;;;;;;;;;;;;;;;;5013629;28;19939;-64
2022/11/20 05:56:14;;;;;;;;;;;;;;;;;;5013499;28;20379;-64
2022/11/20 05:58:40;;;;;;;;;;;;;;;;;;5013565;28;19913;-63
2022/11/20 06:01:05;;;;;;;;;;;;;;;;;;5013580;28;20391;-64
2022/11/20 06:03:31;;;;;;;;;;;;;;;;;;5013496;28;19949;-66
2022/11/20 06:05:58;;;;;;;;;;;;;;;;;;5013223;28;19949;-66
2022/11/20 06:08:23;;;;;;;;;;;;;;;;;;5013307;28;19918;-67
2022/11/20 06:10:48;;;;;;;;;;;;;;;;;;5013216;28;19914;-68
2022/11/20 06:13:14;;;;;;;;;;;;;;;;;;5012772;28;19918;-67
2022/11/20 06:15:39;;;;;;;;;;;;;;;;;;5012663;28;19913;-67
2022/11/20 06:18:04;;;;;;;;;;;;;;;;;;5012547;28;19949;-67
2022/11/20 06:20:30;;;;;;;;;;;;;;;;;;5012297;28;19968;-68
2022/11/20 06:22:55;;;;;;;;;;;;;;;;;;5013212;28;19925;-67
2022/11/20 06:25:20;;;;;;;;;;;;;;;;;;5013038;28;19917;-67
2022/11/20 06:27:46;;;;;;;;;;;;;;;;;;5012873;28;20363;-68
2022/11/20 06:30:11;;;;;;;;;;;;;;;;;;5013027;28;20410;-67
2022/11/20 06:32:37;;;;;;;;;;;;;;;;;;5013102;28;20379;-65
2022/11/20 06:35:02;;;;;;;;;;;;;;;;;;5012837;28;20003;-65
2022/11/20 06:37:27;;;;;;;;;;;;;;;;;;5013086;28;20008;-66
2022/11/20 06:39:53;;;;;;;;;;;;;;;;;;5012471;28;19924;-67
2022/11/20 06:42:18;;;;;;;;;;;;;;;;;;5012349;28;19917;-64
2022/11/20 06:44:43;;;;;;;;;;;;;;;;;;5012403;28;19913;-66
2022/11/20 06:47:09;;;;;;;;;;;;;;;;;;5012324;28;19998;-66
2022/11/20 06:49:34;;;;;;;;;;;;;;;;;;5014726;28;19913;-65
2022/11/20 06:51:59;;;;;;;;;;;;;;;;;;5017034;28;20284;-67
2022/11/20 06:54:25;;;;;;;;;;;;;;;;;;5016923;28;20525;-67
2022/11/20 06:56:50;;;;;;;;;;;;;;;;;;5016251;28;19914;-67
2022/11/20 06:59:15;;;;;;;;;;;;;;;;;;5016160;28;19987;-67
2022/11/20 07:01:41;;;;;;;;;;;;;;;;;;5015959;28;19920;-66
2022/11/20 07:04:06;;;;;;;;;;;;;;;;;;5016020;28;19914;-67
2022/11/20 07:06:31;;;;;;;;;;;;;;;;;;5016727;28;19913;-65
2022/11/20 07:08:57;;;;;;;;;;;;;;;;;;5016546;28;19921;-65
2022/11/20 07:11:23;;;;;;;;;;;;;;;;;;5016592;28;19979;-64
2022/11/20 07:13:48;;;;;;;;;;;;;;;;;;5016548;28;20409;-67
2022/11/20 07:16:15;;;;;;;;;;;;;;;;;;5016430;28;20385;-68
2022/11/20 07:18:40;;;;;;;;;;;;;;;;;;5016307;28;20004;-67
2022/11/20 07:21:07;;;;;;;;;;;;;;;;;;5016295;28;20020;-67
2022/11/20 07:23:33;;;;;;;;;;;;;;;;;;5016456;28;20403;-68
2022/11/20 07:26:02;;;;;;;;;;;;;;;;;;5015618;28;19965;-68
2022/11/20 07:28:27;;;;;;;;;;;;;;;;;;5015775;28;19917;-68
2022/11/20 07:30:53;;;;;;;;;;;;;;;;;;5015575;28;20394;-68
2022/11/20 07:33:18;;;;;;;;;;;;;;;;;;5015367;28;20291;-64
2022/11/20 07:35:44;;;;;;;;;;;;;;;;;;5015820;28;20359;-64
2022/11/20 07:38:10;;;;;;;;;;;;;;;;;;5015867;28;19921;-65
2022/11/20 07:40:35;;;;;;;;;;;;;;;;;;5016065;28;19913;-64
2022/11/20 07:43:00;;;;;;;;;;;;;;;;;;5015936;28;19913;-64
2022/11/20 07:45:26;;;;;;;;;;;;;;;;;;5015912;28;19921;-64
2022/11/20 07:47:51;;;;;;;;;;;;;;;;;;5015792;28;19913;-64
2022/11/20 07:50:17;;;;;;;;;;;;;;;;;;5015498;28;19957;-64
2022/11/20 07:52:43;;;;;;;;;;;;;;;;;;5015970;28;19917;-68
2022/11/20 07:55:08;;;;;;;;;;;;;;;;;;5015571;28;19917;-67
2022/11/20 07:57:34;;;;;;;;;;;;;;;;;;5015073;28;19917;-67
2022/11/20 07:59:59;;;;;;;;;;;;;;;;;;5014577;28;19967;-67
2022/11/20 08:02:25;;;;;;;;;;;;;;;;;;5033547;28;19924;-68
2022/11/20 08:04:50;;;;;;;;;;;;;;;;;;5034960;28;20441;-68
2022/11/20 08:07:16;;;;;;;;;;;;;;;;;;5034984;28;20398;-67
2022/11/20 08:09:41;;;;;;;;;;;;;;;;;;5035212;28;20300;-68
2022/11/20 08:14:50;;;;;;;;;;;;;;;;;;5035380;28;19920;-65
2022/11/20 08:17:16;;;;;;;;;;;;;;;;;;5034906;28;19913;-68
2022/11/20 08:19:41;;;;;;;;;;;;;;;;;;5034979;28;19920;-67
2022/11/20 08:22:06;;;;;;;;;;;;;;;;;;5035030;28;19913;-67
2022/11/20 08:24:32;;;;;;;;;;;;;;;;;;5034958;28;19931;-68
2022/11/20 08:26:58;;;;;;;;;;;;;;;;;;5024288;28;19983;-65
2022/11/20 08:29:24;;;;;;;;;;;;;;;;;;5014982;28;19917;-67
2022/11/20 08:31:49;;;;;;;;;;;;;;;;;;5014917;28;19959;-68
2022/11/20 08:34:15;;;;;;;;;;;;;;;;;;5015086;28;19973;-65
2022/11/20 08:36:40;;;;;;;;;;;;;;;;;;5014966;28;20364;-65
2022/11/20 08:39:05;;;;;;;;;;;;;;;;;;5014933;28;19917;-64
2022/11/20 08:41:32;;;;;;;;;;;;;;;;;;5014254;28;19917;-64
2022/11/20 08:44:02;;;;;;;;;;;;;;;;;;5014343;28;20430;-64
2022/11/20 08:46:33;;;;;;;;;;;;;;;;;;5013958;28;19909;-64
2022/11/20 08:48:58;;;;;;;;;;;;;;;;;;5013916;28;19967;-64
2022/11/20 08:51:23;;;;;;;;;;;;;;;;;;5014619;28;19960;-64
2022/11/20 08:53:49;;;;;;;;;;;;;;;;;;5014594;28;20008;-67
2022/11/20 08:56:14;;;;;;;;;;;;;;;;;;5014576;28;19964;-64
2022/11/20 08:58:40;;;;;;;;;;;;;;;;;;5014262;28;19953;-64
2022/11/20 09:01:05;;;;;;;;;;;;;;;;;;5014377;28;19917;-64
2022/11/20 09:03:31;;;;;;;;;;;;;;;;;;5014414;28;19913;-64
2022/11/20 09:06:03;;;;;;;;;;;;;;;;;;5014502;28;19914;-64
2022/11/20 09:08:29;;;;;;;;;;;;;;;;;;5014333;28;19970;-64
2022/11/20 09:10:55;;;;;;;;;;;;;;;;;;5014204;28;19917;-64
2022/11/20 09:13:21;;;;;;;;;;;;;;;;;;5012519;28;19949;-64
2022/11/20 09:15:46;;;;;;;;;;;;;;;;;;5013511;28;20054;-64
2022/11/20 09:18:12;;;;;;;;;;;;;;;;;;5013523;28;19920;-64
2022/11/20 09:20:37;;;;;;;;;;;;;;;;;;5013732;28;20016;-66
2022/11/20 09:23:03;;;;;;;;;;;;;;;;;;5014142;28;20003;-64
2022/11/20 09:25:28;;;;;;;;;;;;;;;;;;5013960;28;19940;-64
2022/11/20 09:27:57;;;;;;;;;;;;;;;;;;5013553;28;19924;-64
2022/11/20 09:30:22;;;;;;;;;;;;;;;;;;5013861;28;20295;-64
2022/11/20 09:32:48;;;;;;;;;;;;;;;;;;5013906;28;19914;-67
2022/11/20 09:35:14;;;;;;;;;;;;;;;;;;5013899;28;20344;-66
2022/11/20 09:37:39;;;;;;;;;;;;;;;;;;5013718;28;20008;-64
2022/11/20 09:40:05;;;;;;;;;;;;;;;;;;5013271;28;20016;-67
2022/11/20 09:42:36;;;;;;;;;;;;;;;;;;5012991;28;19914;-67
2022/11/20 09:45:12;;;;;;;;;;;;;;;;;;5013146;28;20098;-66
2022/11/20 09:47:47;;;;;;;;;;;;;;;;;;5018419;28;19917;-65
2022/11/20 09:50:27;;;;;;;;;;;;;;;;;;5031943;28;19979;-65
2022/11/20 09:53:11;;;;;;;;;;;;;;;;;;5033680;28;20343;-65
2022/11/20 09:55:37;;;;;;;;;;;;;;;;;;5033568;28;20398;-65
2022/11/20 09:58:06;;;;;;;;;;;;;;;;;;5024078;28;19921;-66
2022/11/20 10:00:31;;;;;;;;;;;;;;;;;;5028424;28;19919;-64
2022/11/20 10:03:11;;;;;;;;;;;;;;;;;;5032850;28;20314;-68
2022/11/20 10:05:40;;;;;;;;;;;;;;;;;;5030638;28;19944;-68
2022/11/20 10:08:09;;;;;;;;;;;;;;;;;;5032812;28;20268;-67
2022/11/20 10:10:38;;;;;;;;;;;;;;;;;;5028150;28;19917;-67
2022/11/20 10:13:12;;;;;;;;;;;;;;;;;;5032526;28;19921;-67
2022/11/20 10:15:43;;;;;;;;;;;;;;;;;;5030674;28;20268;-64
2022/11/20 10:18:13;;;;;;;;;;;;;;;;;;5032430;28;19913;-68
2022/11/20 10:20:53;;;;;;;;;;;;;;;;;;5032502;28;19917;-68
2022/11/20 10:23:18;;;;;;;;;;;;;;;;;;5030476;28;19948;-68
2022/11/20 10:25:56;;;;;;;;;;;;;;;;;;5031895;28;19948;-69
2022/11/20 10:28:21;;;;;;;;;;;;;;;;;;5027255;28;19917;-68
2022/11/20 10:30:51;;;;;;;;;;;;;;;;;;5013301;28;20264;-68
2022/11/20 10:33:19;;;;;;;;;;;;;;;;;;5022068;28;19999;-67
2022/11/20 10:35:48;;;;;;;;;;;;;;;;;;5017900;28;19992;-68
2022/11/20 10:38:20;;;;;;;;;;;;;;;;;;5016271;28;19914;-68
2022/11/20 10:40:48;;;;;;;;;;;;;;;;;;5012975;28;20290;-67
2022/11/20 10:43:13;;;;;;;;;;;;;;;;;;5019228;28;20389;-68
2022/11/20 10:45:39;;;;;;;;;;;;;;;;;;5032903;28;19913;-68
2022/11/20 10:48:10;;;;;;;;;;;;;;;;;;5032703;28;20401;-67
2022/11/20 10:50:40;;;;;;;;;;;;;;;;;;5020518;28;19964;-67
2022/11/20 10:53:12;;;;;;;;;;;;;;;;;;5013139;28;19944;-67
2022/11/20 10:55:58;;;;;;;;;;;;;;;;;;5012631;28;19920;-67
2022/11/20 10:58:42;;;;;;;;;;;;;;;;;;5012865;28;19918;-64
2022/11/20 11:01:14;;;;;;;;;;;;;;;;;;5018159;28;20029;-67
2022/11/20 11:03:43;;;;;;;;;;;;;;;;;;5024086;28;19925;-66
2022/11/20 11:06:12;;;;;;;;;;;;;;;;;;5023781;28;20367;-67
2022/11/20 11:08:38;;;;;;;;;;;;;;;;;;5013394;28;19917;-64
2022/11/20 11:11:15;;;;;;;;;;;;;;;;;;5012743;28;19987;-65
2022/11/20 11:13:40;;;;;;;;;;;;;;;;;;5013017;28;19988;-67
2022/11/20 11:16:05;;;;;;;;;;;;;;;;;;5012889;28;20056;-64
2022/11/20 11:18:34;;;;;;;;;;;;;;;;;;5012511;28;19953;-64
2022/11/20 11:21:01;;;;;;;;;;;;;;;;;;5012714;28;19976;-64
2022/11/20 11:23:29;;;;;;;;;;;;;;;;;;5012792;28;19978;-64
2022/11/20 11:25:58;;;;;;;;;;;;;;;;;;5010984;28;19960;-67
2022/11/20 11:28:26;;;;;;;;;;;;;;;;;;5012631;28;19956;-64
2022/11/20 11:30:51;;;;;;;;;;;;;;;;;;5012702;28;19917;-65
2022/11/20 11:33:21;;;;;;;;;;;;;;;;;;5020938;28;20008;-67
2022/11/20 11:35:47;;;;;;;;;;;;;;;;;;5016323;28;19920;-67
2022/11/20 11:38:16;;;;;;;;;;;;;;;;;;5035863;28;19924;-67
2022/11/20 11:40:41;;;;;;;;;;;;;;;;;;5026547;28;19913;-68
2022/11/20 11:45:04;;;;;;;;;;;;;;;;;;5017648;28;19917;-66
2022/11/20 11:46:02;;;;;;;;;;;;;;;;;;5029290;28;20371;-64
2022/11/20 11:48:27;;;;;;;;;;;;;;;;;;5020101;28;20001;-64
2022/11/20 11:50:53;;;;;;;;;;;;;;;;;;5032010;28;19924;-64
2022/11/20 11:53:23;;;;;;;;;;;;;;;;;;5025521;28;19913;-67
2022/11/20 11:55:48;;;;;;;;;;;;;;;;;;5015876;28;19920;-64
2022/11/20 11:58:28;;;;;;;;;;;;;;;;;;5015648;28;19914;-68
2022/11/20 12:01:16;;;;;;;;;;;;;;;;;;5015691;28;19920;-67
2022/11/20 12:03:44;;;;;;;;;;;;;;;;;;5015598;28;19913;-68
2022/11/20 12:06:14;;;;;;;;;;;;;;;;;;5015737;28;20012;-68
2022/11/20 12:08:42;;;;;;;;;;;;;;;;;;5025554;28;19947;-68
2022/11/20 12:11:20;;;;;;;;;;;;;;;;;;5035438;28;19956;-68
2022/11/20 12:13:53;;;;;;;;;;;;;;;;;;5035377;28;19917;-68
2022/11/20 12:16:19;;;;;;;;;;;;;;;;;;5035392;28;19913;-68
2022/11/20 12:18:45;;;;;;;;;;;;;;;;;;5035294;28;19928;-67
2022/11/20 12:21:16;;;;;;;;;;;;;;;;;;5035332;28;19917;-68
2022/11/20 12:23:51;;;;;;;;;;;;;;;;;;5031257;28;19913;-65
2022/11/20 12:26:34;;;;;;;;;;;;;;;;;;5029347;28;20008;-67
2022/11/20 12:29:05;;;;;;;;;;;;;;;;;;5015071;28;20427;-66
2022/11/20 12:31:30;;;;;;;;;;;;;;;;;;5016761;28;19917;-66
2022/11/20 12:34:03;;;;;;;;;;;;;;;;;;5023470;28;19914;-66
2022/11/20 12:36:45;;;;;;;;;;;;;;;;;;5021212;28;19919;-65
2022/11/20 12:39:19;;;;;;;;;;;;;;;;;;5033987;28;19921;-66
2022/11/20 12:47:48;;;;;;;;;;;;;;;;;;5033837;28;19924;-66
2022/11/20 12:50:14;;;;;;;;;;;;;;;;;;5034535;28;19913;-66
2022/11/20 12:52:53;;;;;;;;;;;;;;;;;;5033499;28;20367;-66
2022/11/20 12:55:25;;;;;;;;;;;;;;;;;;5034147;28;20386;-66
2022/11/20 12:57:58;;;;;;;;;;;;;;;;;;5034118;28;19971;-66
2022/11/20 13:00:24;;;;;;;;;;;;;;;;;;5034188;28;19917;-67
2022/11/20 13:03:08;;;;;;;;;;;;;;;;;;5034154;28;19916;-67
2022/11/20 13:05:52;;;;;;;;;;;;;;;;;;5033898;28;19916;-65
2022/11/20 13:08:25;;;;;;;;;;;;;;;;;;5033487;28;19959;-65
2022/11/20 13:11:03;;;;;;;;;;;;;;;;;;5033785;28;19935;-73
2022/11/20 13:14:02;;;;;;;13.45;8.57;;;;;;;;;;5110164;27;20430;-65
2022/11/20 13:16:54;;;;;;;12.70;8.07;;;;;;;;;;5110063;28;20027;-65
2022/11/20 13:19:20;;;;;;;13.07;8.30;;;;;;;;;;5110223;28;20035;-64
2022/11/20 13:21:51;;;;;;;12.88;8.43;;;;;;;;;;5109445;28;20027;-64
2022/11/20 13:24:19;;;;;;;13.77;8.55;;;;;;;;;;5110101;28;20100;-67
2022/11/20 13:26:45;;;;;;;13.25;8.77;;;;;;;;;;5109745;28;20460;-66
2022/11/20 13:29:18;;;;;;;13.88;8.50;;;;;;;;;;5109823;28;20039;-66
2022/11/20 13:31:46;;;;;;;13.07;8.90;;;;;;;;;;5109726;28;20028;-66
2022/11/20 13:34:33;;;;;;;12.93;8.52;;;;;;;;;;5109545;28;20147;-66
2022/11/20 13:37:03;;;;;;;15.05;10.38;;;;;;;;;;5103045;28;20038;-68
2022/11/20 13:39:30;;;;;;;;;;;;;;;;;;5103562;28;20031;-66
2022/11/20 13:41:58;;;;;;;14.85;8.40;;;;;;;;;;5089414;28;19940;-66
2022/11/20 13:44:37;;;;;;;16.05;10.18;;;;;;;;;;5089123;28;20428;-66
2022/11/20 13:47:03;;;;;;;16.63;9.90;;;;;;;;;;5089148;28;20103;-67
2022/11/20 13:49:34;;;;;;;15.50;9.73;;;;;;;;;;5073608;28;20435;-64
2022/11/20 13:52:36;;;;;;;18.35;11.35;;;;;;;;;;5100021;28;20038;-68
2022/11/20 13:55:16;;;;;;;12.55;8.18;;;;;;;;;;5109594;28;20024;-66
2022/11/20 13:58:00;;;;;;;13.63;9.33;;;;;;;;;;5103929;28;20028;-67
2022/11/20 14:00:26;;;;;;;14.68;8.85;;;;;;;;;;5088265;28;20025;-66
2022/11/20 14:03:07;;;;;;;16.17;10.13;;;;;;;;;;5089206;28;20028;-66
2022/11/20 14:05:38;;;;;;;14.52;9.55;;;;;;;;;;5070994;28;20389;-65
2022/11/20 14:08:10;;;;;;;14.75;8.50;;;;;;;;;;5088982;28;20103;-65
2022/11/20 14:10:39;;;;;;;13.93;9.20;;;;;;;;;;5089025;28;20081;-65
2022/11/20 14:13:19;;;;;;;15.85;9.68;;;;;;;;;;5096394;28;20054;-66
2022/11/20 14:15:44;;;;;;;;;;;;;;;;;;5109716;28;20016;-66
2022/11/20 14:18:19;;;;;;;13.27;8.63;;;;;;;;;;5108231;28;19934;-67
2022/11/20 14:20:45;;;;;;;12.48;8.13;;;;;;;;;;5109287;28;20024;-67
2022/11/20 14:23:11;;;;;;;13.18;8.38;;;;;;;;;;5106558;28;20032;-67
2022/11/20 14:25:41;;;;;;;13.85;8.48;;;;;;;;;;5095650;28;20166;-67
2022/11/20 14:28:17;;;;;;;14.48;9.05;;;;;;;;;;5095597;28;20093;-67
2022/11/20 14:30:46;;;;;;;13.55;8.45;;;;;;;;;;5095528;28;20377;-66
2022/11/20 14:33:14;;;;;;;12.75;8.63;;;;;;;;;;5095078;28;20024;-67
2022/11/20 14:35:51;;;;;;;13.38;8.40;;;;;;;;;;5095428;28;20088;-67
2022/11/20 14:38:25;;;;;;;12.05;7.90;;;;;;;;;;5095321;28;20032;-67
2022/11/20 14:40:50;;;;;;;12.82;8.07;;;;;;;;;;5095316;28;20482;-66
2022/11/20 14:43:21;;;;;;;12.25;8.05;;;;;;;;;;5095381;28;20097;-66
2022/11/20 14:46:01;;;;;;;12.18;8.25;;;;;;;;;;5095307;28;20028;-66
2022/11/20 14:48:34;;;;;;;10.45;7.35;;;;;;;;;;5094676;28;20066;-65
2022/11/20 14:50:59;;;;;;;10.15;7.28;;;;;;;;;;5095254;28;20032;-65
2022/11/20 14:53:25;;;;;;;10.63;7.32;;;;;;;;;;5095089;28;20032;-65
2022/11/20 14:55:59;;;;;;;10.65;7.15;;;;;;;;;;5095148;28;20028;-66
2022/11/20 14:58:31;;;;;;;11.45;7.32;;;;;;;;;;5094790;28;20476;-65
2022/11/20 15:01:01;;;;;;;10.25;7.25;;;;;;;;;;5095055;28;20036;-68
2022/11/20 15:03:38;;;;;;;10.25;7.35;;;;;;;;;;5093446;28;20418;-68
2022/11/20 15:06:06;;;;;;;9.98;7.15;;;;;;;;;;5095037;28;20028;-67
2022/11/20 15:08:32;;;;;;;10.45;7.40;;;;;;;;;;5094752;28;20455;-70
2022/11/20 15:10:58;;;;;;;12.82;8.55;;;;;;;;;;5094904;28;20035;-67
2022/11/20 15:13:32;;;;;;;10.18;7.63;;;;;;;;;;5094394;28;20127;-65
2022/11/20 15:16:00;;;;;;;12.23;8.10;;;;;;;;;;5094559;28;20020;-67
2022/11/20 15:18:38;;;;;;;11.30;7.53;;;;;;;;;;5094384;28;20024;-68
2022/11/20 15:21:11;;;;;;;11.57;8.27;;;;;;;;;;5094723;28;20127;-68
2022/11/20 15:23:36;;;;;;;11.02;7.78;;;;;;;;;;5094489;28;20032;-66
2022/11/20 15:26:05;;;;;;;12.43;8.13;;;;;;;;;;5094421;28;20076;-67
2022/11/20 15:28:33;;;;;;;14.20;9.20;;;;;;;;;;5094262;28;20075;-71
2022/11/20 15:31:00;;;;;;;13.65;8.43;;;;;;;;;;5094211;28;20115;-73
2022/11/20 15:33:25;;;;;;;11.10;8.05;;;;;;;;;;5094157;28;20020;-73
2022/11/20 15:35:51;;;;;;;11.00;7.93;;;;;;;;;;5093085;28;20024;-67
2022/11/20 15:38:16;;;;;;;10.63;7.70;;;;;;;;;;5093960;28;20390;-69
2022/11/20 15:40:42;;;;;;;10.05;7.30;;;;;;;;;;5094131;28;20031;-71
2022/11/20 15:43:07;;;;;;;11.73;8.25;;;;;;;;;;5094271;28;20481;-79
2022/11/20 15:45:47;;;;;;;11.10;7.35;;;;;;;;;;5093559;28;20043;-70
2022/11/20 15:48:19;;;;;;;12.07;7.93;;;;;;;;;;5086497;28;20030;-73
2022/11/20 15:51:03;;;;;;;11.57;7.80;;;;;;;;;;5086148;28;20047;-71
2022/11/20 15:53:29;;;;;;;11.15;7.25;;;;;;;;;;5093221;28;20024;-71
2022/11/20 15:55:54;;;;;;;10.68;7.20;;;;;;;;;;5093307;28;20039;-69
2022/11/20 15:58:22;;;;;;;10.45;7.07;;;;;;;;;;5093158;28;20020;-68
2022/11/20 16:00:48;;;;;;;12.85;8.57;;;;;;;;;;5093004;28;20028;-76
2022/11/20 16:03:15;;;;;;;11.85;7.95;;;;;;;;;;5092776;28;20123;-72
2022/11/20 16:05:40;;;;;;;11.15;7.65;;;;;;;;;;5092991;28;20028;-73
2022/11/20 16:08:06;;;;;;;15.27;9.30;;;;;;;;;;5093120;28;20028;-72
2022/11/20 16:10:32;;;;;;;15.88;8.70;;;;;;;;;;5092590;28;20039;-70
2022/11/20 16:15:44;;;;;;;13.52;7.68;;;;;;;;;;5092748;28;20062;-73
2022/11/20 16:18:11;;;;;;;12.60;7.97;;;;;;;;;;5092498;28;20488;-71
2022/11/20 16:20:39;;;;;;;14.38;8.52;;;;;;;;;;5092858;28;20028;-70
2022/11/20 16:23:06;;;;;;;15.05;8.50;;;;;;;;;;5092840;28;20085;-73
2022/11/20 16:25:32;;;;;;;14.65;8.25;;;;;;;;;;5092616;28;20289;-72
2022/11/20 16:27:57;;;;;;;14.40;8.50;;;;;;;;;;5092623;28;20095;-74
2022/11/20 16:30:23;;;;;;;12.65;8.77;;;;;;;;;;5092291;28;20026;-69
2022/11/20 16:32:48;;;;;;;13.75;8.25;;;;;;;;;;5092074;28;20032;-76
2022/11/20 16:35:14;;;;;;;13.90;8.52;;;;;;;;;;5092542;28;20020;-73
2022/11/20 16:37:40;;;;;;;12.18;8.07;;;;;;;;;;5092522;28;20457;-76